Time;durP1;ratioP1;P1;durP2;ratioP2;P2;SDS_P1;SDS_P2;PMS_P1;PMS_P2;Temp;Humidity;BMP_temperature;BMP_pressure;BME280_temperature;BME280_humidity;BME280_pressure;Samples;Min_cycle;Max_cycle;Signal;HPM_P1;HPM_P2
2023/05/11 00:00:26;;;;;;;0.40;0.40;;;;;;;;;;4987622;28;20206;-58
2023/05/11 00:02:53;;;;;;;2.57;0.40;;;;;;;;;;4986588;28;20226;-58
2023/05/11 00:05:20;;;;;;;4.20;0.32;;;;;;;;;;4986555;28;20209;-58
2023/05/11 00:07:47;;;;;;;0.50;0.50;;;;;;;;;;4978109;28;20202;-58
2023/05/11 00:10:14;;;;;;;0.40;0.40;;;;;;;;;;4987372;28;20823;-58
2023/05/11 00:12:41;;;;;;;0.30;0.30;;;;;;;;;;4986386;28;20285;-58
2023/05/11 00:15:09;;;;;;;0.65;0.43;;;;;;;;;;4986971;28;20214;-58
2023/05/11 00:17:37;;;;;;;5.83;0.30;;;;;;;;;;4987104;28;20197;-59
2023/05/11 00:20:05;;;;;;;4.30;0.40;;;;;;;;;;4986872;28;20209;-58
2023/05/11 00:22:32;;;;;;;0.30;0.30;;;;;;;;;;4990390;28;20257;-58
2023/05/11 00:24:59;;;;;;;3.93;0.50;;;;;;;;;;4990824;28;20216;-58
2023/05/11 00:27:26;;;;;;;0.30;0.30;;;;;;;;;;4990475;28;20207;-58
2023/05/11 00:29:53;;;;;;;0.27;0.27;;;;;;;;;;4990382;28;20213;-58
2023/05/11 00:32:20;;;;;;;0.20;0.20;;;;;;;;;;4990070;28;20206;-58
2023/05/11 00:34:48;;;;;;;0.23;0.23;;;;;;;;;;4989997;28;20217;-58
2023/05/11 00:37:15;;;;;;;0.30;0.30;;;;;;;;;;4990256;28;20224;-58
2023/05/11 00:39:42;;;;;;;0.30;0.30;;;;;;;;;;4990701;28;20297;-58
2023/05/11 00:42:10;;;;;;;0.80;0.40;;;;;;;;;;4989539;28;20557;-58
2023/05/11 00:44:38;;;;;;;2.40;0.30;;;;;;;;;;4989673;28;20316;-58
2023/05/11 00:47:05;;;;;;;2.43;0.30;;;;;;;;;;4990066;28;20206;-58
2023/05/11 00:49:32;;;;;;;0.30;0.30;;;;;;;;;;4990069;28;20217;-58
2023/05/11 00:52:01;;;;;;;0.30;0.30;;;;;;;;;;4989713;28;20213;-57
2023/05/11 00:54:29;;;;;;;1.30;0.40;;;;;;;;;;4989709;28;20232;-57
2023/05/11 00:56:56;;;;;;;0.33;0.33;;;;;;;;;;4989383;28;20275;-58
2023/05/11 00:59:23;;;;;;;0.43;0.43;;;;;;;;;;4987280;28;20672;-58
2023/05/11 01:01:50;;;;;;;0.30;0.30;;;;;;;;;;4987725;28;20218;-58
2023/05/11 01:04:18;;;;;;;0.43;0.43;;;;;;;;;;4987566;28;20315;-58
2023/05/11 01:06:48;;;;;;;0.67;0.33;;;;;;;;;;4985091;28;20214;-58
2023/05/11 01:09:22;;;;;;;0.30;0.30;;;;;;;;;;4986511;28;20439;-58
2023/05/11 01:11:52;;;;;;;0.60;0.30;;;;;;;;;;4989919;28;20216;-58
2023/05/11 01:14:21;;;;;;;0.40;0.40;;;;;;;;;;4989055;28;20217;-58
2023/05/11 01:16:50;;;;;;;0.40;0.40;;;;;;;;;;4988218;28;20620;-58
2023/05/11 01:19:19;;;;;;;0.40;0.40;;;;;;;;;;4989321;28;20260;-58
2023/05/11 01:21:47;;;;;;;0.40;0.40;;;;;;;;;;4988848;28;20206;-58
2023/05/11 01:24:26;;;;;;;0.50;0.50;;;;;;;;;;4989265;28;20226;-58
2023/05/11 01:27:07;;;;;;;0.40;0.40;;;;;;;;;;4988899;28;20638;-58
2023/05/11 01:30:01;;;;;;;2.23;0.70;;;;;;;;;;4989133;28;20587;-57
2023/05/11 01:32:31;;;;;;;2.30;0.37;;;;;;;;;;4957990;28;20738;-58
2023/05/11 01:35:03;;;;;;;0.30;0.30;;;;;;;;;;4985977;28;20257;-57
2023/05/11 01:37:31;;;;;;;1.10;0.63;;;;;;;;;;4989513;28;20209;-57
2023/05/11 01:40:00;;;;;;;0.30;0.30;;;;;;;;;;4989372;28;20762;-56
2023/05/11 01:42:31;;;;;;;0.40;0.40;;;;;;;;;;4988914;28;20267;-57
2023/05/11 01:44:59;;;;;;;0.50;0.50;;;;;;;;;;4988911;28;20249;-58
2023/05/11 01:47:26;;;;;;;0.40;0.40;;;;;;;;;;4989119;28;20205;-58
2023/05/11 01:49:55;;;;;;;0.40;0.40;;;;;;;;;;4989025;28;20750;-58
2023/05/11 01:52:24;;;;;;;0.50;0.50;;;;;;;;;;4988758;28;20376;-58
2023/05/11 01:54:53;;;;;;;0.50;0.50;;;;;;;;;;4989068;28;20288;-58
2023/05/11 01:57:21;;;;;;;0.53;0.53;;;;;;;;;;4989207;28;20214;-58
2023/05/11 01:59:49;;;;;;;1.03;0.60;;;;;;;;;;4988741;28;20205;-57
2023/05/11 02:02:17;;;;;;;5.77;0.50;;;;;;;;;;4988692;28;20288;-58
2023/05/11 02:04:45;;;;;;;0.53;0.50;;;;;;;;;;4988789;28;20284;-58
2023/05/11 02:07:14;;;;;;;0.73;0.40;;;;;;;;;;4988819;28;20276;-57
2023/05/11 02:09:42;;;;;;;0.40;0.40;;;;;;;;;;4989065;28;20218;-58
2023/05/11 02:12:10;;;;;;;0.50;0.43;;;;;;;;;;4988995;28;20740;-58
2023/05/11 02:14:38;;;;;;;0.30;0.30;;;;;;;;;;4988735;28;20206;-57
2023/05/11 02:17:05;;;;;;;0.60;0.60;;;;;;;;;;4988343;28;20210;-58
2023/05/11 02:19:34;;;;;;;0.27;0.27;;;;;;;;;;4988311;28;20214;-58
2023/05/11 02:22:01;;;;;;;0.50;0.50;;;;;;;;;;4987960;28;20747;-57
2023/05/11 02:24:30;;;;;;;0.43;0.40;;;;;;;;;;4988053;28;20217;-57
2023/05/11 02:26:58;;;;;;;1.17;0.40;;;;;;;;;;4988697;28;21012;-57
2023/05/11 02:29:25;;;;;;;0.40;0.40;;;;;;;;;;4988222;28;20231;-57
2023/05/11 02:31:56;;;;;;;0.50;0.50;;;;;;;;;;4988582;28;20313;-57
2023/05/11 02:34:25;;;;;;;0.53;0.40;;;;;;;;;;4987366;28;20202;-57
2023/05/11 02:36:54;;;;;;;1.30;0.40;;;;;;;;;;4988314;28;20210;-58
2023/05/11 02:39:22;;;;;;;0.40;0.40;;;;;;;;;;4988405;28;20287;-57
2023/05/11 02:41:55;;;;;;;0.40;0.40;;;;;;;;;;4987881;28;20209;-57
2023/05/11 02:44:24;;;;;;;0.30;0.30;;;;;;;;;;4987093;28;20273;-57
2023/05/11 02:46:53;;;;;;;3.00;0.50;;;;;;;;;;5005968;28;20326;-58
2023/05/11 02:49:22;;;;;;;0.40;0.40;;;;;;;;;;5006706;28;20209;-57
2023/05/11 02:51:50;;;;;;;0.70;0.40;;;;;;;;;;4999367;28;20675;-58
2023/05/11 02:54:18;;;;;;;2.10;0.53;;;;;;;;;;5005831;28;20268;-57
2023/05/11 02:56:45;;;;;;;0.90;0.53;;;;;;;;;;5006516;28;20220;-57
2023/05/11 02:59:14;;;;;;;0.30;0.30;;;;;;;;;;5006735;28;20207;-58
2023/05/11 03:01:41;;;;;;;0.97;0.57;;;;;;;;;;5006542;28;20924;-58
2023/05/11 03:04:08;;;;;;;0.40;0.40;;;;;;;;;;5006625;28;20236;-58
2023/05/11 03:06:36;;;;;;;0.50;0.50;;;;;;;;;;5006391;28;20626;-58
2023/05/11 03:09:03;;;;;;;0.50;0.50;;;;;;;;;;5006721;28;20243;-58
2023/05/11 03:11:30;;;;;;;0.30;0.30;;;;;;;;;;5006571;28;20206;-57
2023/05/11 03:13:58;;;;;;;0.30;0.30;;;;;;;;;;5007325;28;20232;-58
2023/05/11 03:16:27;;;;;;;0.40;0.40;;;;;;;;;;5001728;28;20216;-58
2023/05/11 03:18:55;;;;;;;0.60;0.37;;;;;;;;;;5006607;28;20260;-58
2023/05/11 03:21:23;;;;;;;0.53;0.53;;;;;;;;;;5007043;28;20209;-57
2023/05/11 03:23:51;;;;;;;0.40;0.40;;;;;;;;;;5007340;28;20280;-57
2023/05/11 03:26:20;;;;;;;1.07;0.53;;;;;;;;;;5006996;28;20571;-58
2023/05/11 03:28:47;;;;;;;0.67;0.50;;;;;;;;;;5006932;28;20220;-58
2023/05/11 03:31:14;;;;;;;0.40;0.40;;;;;;;;;;5007008;28;20255;-58
2023/05/11 03:33:42;;;;;;;0.50;0.50;;;;;;;;;;5007600;28;20204;-57
2023/05/11 03:36:11;;;;;;;0.30;0.30;;;;;;;;;;5006090;28;20205;-58
2023/05/11 03:38:38;;;;;;;1.97;0.73;;;;;;;;;;5007161;28;20219;-58
2023/05/11 03:41:05;;;;;;;0.50;0.50;;;;;;;;;;5007155;28;20212;-58
2023/05/11 03:43:35;;;;;;;0.40;0.40;;;;;;;;;;5007323;28;20232;-58
2023/05/11 03:46:03;;;;;;;0.43;0.43;;;;;;;;;;5003718;28;20244;-58
2023/05/11 03:48:31;;;;;;;0.47;0.47;;;;;;;;;;5006682;28;20205;-58
2023/05/11 03:50:59;;;;;;;0.60;0.60;;;;;;;;;;5006954;28;20248;-57
2023/05/11 03:53:26;;;;;;;0.50;0.50;;;;;;;;;;5006491;28;20250;-57
2023/05/11 03:55:53;;;;;;;0.50;0.50;;;;;;;;;;5007543;28;20238;-58
2023/05/11 03:58:21;;;;;;;0.30;0.30;;;;;;;;;;5010072;28;20216;-58
2023/05/11 04:00:48;;;;;;;0.37;0.37;;;;;;;;;;5009592;28;20729;-57
2023/05/11 04:03:15;;;;;;;0.60;0.60;;;;;;;;;;5009362;28;20205;-57
2023/05/11 04:05:42;;;;;;;0.40;0.40;;;;;;;;;;5009753;28;20205;-58
2023/05/11 04:08:11;;;;;;;6.07;0.80;;;;;;;;;;5008631;28;20209;-57
2023/05/11 04:10:38;;;;;;;0.43;0.43;;;;;;;;;;5005256;28;20214;-58
2023/05/11 04:13:05;;;;;;;0.60;0.60;;;;;;;;;;5010209;28;20297;-58
2023/05/11 04:15:32;;;;;;;1.03;0.40;;;;;;;;;;5009419;28;20737;-58
2023/05/11 04:17:59;;;;;;;1.07;0.40;;;;;;;;;;5009574;28;20209;-57
2023/05/11 04:20:26;;;;;;;0.30;0.30;;;;;;;;;;5010001;28;20267;-58
2023/05/11 04:22:53;;;;;;;0.60;0.60;;;;;;;;;;5007528;28;20208;-57
2023/05/11 04:25:21;;;;;;;1.17;0.47;;;;;;;;;;5003212;28;20231;-58
2023/05/11 04:27:48;;;;;;;3.27;0.73;;;;;;;;;;5009813;28;20205;-58
2023/05/11 04:30:16;;;;;;;0.40;0.40;;;;;;;;;;5009200;28;20244;-57
2023/05/11 04:32:43;;;;;;;0.50;0.50;;;;;;;;;;5009042;28;20205;-57
2023/05/11 04:35:10;;;;;;;0.63;0.63;;;;;;;;;;5009299;28;20255;-57
2023/05/11 04:37:37;;;;;;;0.40;0.40;;;;;;;;;;5009125;28;20251;-57
2023/05/11 04:40:04;;;;;;;0.47;0.47;;;;;;;;;;5007246;28;20201;-57
2023/05/11 04:42:33;;;;;;;0.37;0.37;;;;;;;;;;5009582;28;20217;-58
2023/05/11 04:45:00;;;;;;;0.60;0.60;;;;;;;;;;5008743;28;20217;-58
2023/05/11 04:47:27;;;;;;;0.40;0.40;;;;;;;;;;4993634;28;20613;-56
2023/05/11 04:49:54;;;;;;;0.37;0.37;;;;;;;;;;4989564;28;20209;-56
2023/05/11 04:52:21;;;;;;;0.50;0.50;;;;;;;;;;4988845;28;20723;-56
2023/05/11 04:54:48;;;;;;;0.60;0.60;;;;;;;;;;4989368;28;20285;-57
2023/05/11 04:57:15;;;;;;;0.50;0.50;;;;;;;;;;4989756;28;20672;-57
2023/05/11 04:59:43;;;;;;;0.50;0.50;;;;;;;;;;4989036;28;20205;-57
2023/05/11 05:02:10;;;;;;;0.70;0.40;;;;;;;;;;4988206;28;20202;-57
2023/05/11 05:04:37;;;;;;;0.60;0.60;;;;;;;;;;4989466;28;20234;-60
2023/05/11 05:07:04;;;;;;;0.57;0.57;;;;;;;;;;4988194;28;20202;-57
2023/05/11 05:09:31;;;;;;;0.33;0.33;;;;;;;;;;4989737;28;20209;-57
2023/05/11 05:11:58;;;;;;;0.50;0.50;;;;;;;;;;4988718;28;20276;-57
2023/05/11 05:14:25;;;;;;;0.60;0.60;;;;;;;;;;4988999;28;20296;-57
2023/05/11 05:16:54;;;;;;;0.57;0.50;;;;;;;;;;4989649;28;20268;-57
2023/05/11 05:22:24;;;;;;;1.63;0.40;;;;;;;;;;4983630;28;20742;-57
2023/05/11 05:24:51;;;;;;;0.70;0.70;;;;;;;;;;4988530;28;20288;-57
2023/05/11 05:27:18;;;;;;;0.50;0.50;;;;;;;;;;4984074;28;20213;-57
2023/05/11 05:29:45;;;;;;;0.57;0.57;;;;;;;;;;4988737;28;20209;-57
2023/05/11 05:32:14;;;;;;;0.50;0.43;;;;;;;;;;4988189;28;20735;-58
2023/05/11 05:34:41;;;;;;;0.90;0.47;;;;;;;;;;4990877;28;20233;-58
2023/05/11 05:37:08;;;;;;;0.47;0.47;;;;;;;;;;4987429;28;20217;-57
2023/05/11 05:42:38;;;;;;;0.60;0.60;;;;;;;;;;4988634;28;20189;-58
2023/05/11 05:48:10;;;;;;;17.60;2.30;;;;;;;;;;5003355;28;20223;-59
2023/05/11 05:50:38;;;;;;;0.50;0.50;;;;;;;;;;5008438;28;20283;-59
2023/05/11 05:53:05;;;;;;;1.40;0.70;;;;;;;;;;4998172;28;20256;-59
2023/05/11 05:55:32;;;;;;;0.47;0.47;;;;;;;;;;5008216;28;20675;-59
2023/05/11 05:57:59;;;;;;;2.03;0.60;;;;;;;;;;5007884;28;20209;-59
2023/05/11 06:00:26;;;;;;;7.87;3.83;;;;;;;;;;5007233;28;20511;-59
2023/05/11 06:02:53;;;;;;;1.10;0.83;;;;;;;;;;5008336;28;20209;-59
2023/05/11 06:05:22;;;;;;;0.77;0.77;;;;;;;;;;5008141;28;20241;-59
2023/05/11 06:07:49;;;;;;;0.67;0.67;;;;;;;;;;5008436;28;20642;-59
2023/05/11 06:10:16;;;;;;;1.70;0.60;;;;;;;;;;5008330;28;20319;-57
2023/05/11 06:12:43;;;;;;;0.60;0.60;;;;;;;;;;5007638;28;20259;-57
2023/05/11 06:15:10;;;;;;;0.45;0.45;;;;;;;;;;5008239;28;20255;-57
2023/05/11 06:17:37;;;;;;;0.60;0.60;;;;;;;;;;5007627;28;20205;-57
2023/05/11 06:20:04;;;;;;;0.60;0.60;;;;;;;;;;5006969;28;20695;-57
2023/05/11 06:22:33;;;;;;;0.45;0.45;;;;;;;;;;5007802;28;20204;-57
2023/05/11 06:25:00;;;;;;;0.50;0.50;;;;;;;;;;5005555;28;20233;-57
2023/05/11 06:27:27;;;;;;;0.60;0.60;;;;;;;;;;5007414;28;20213;-57
2023/05/11 06:32:57;;;;;;;0.50;0.50;;;;;;;;;;5007744;28;20614;-57
2023/05/11 06:35:24;;;;;;;0.73;0.60;;;;;;;;;;5007948;28;20624;-58
2023/05/11 06:37:53;;;;;;;0.60;0.60;;;;;;;;;;5007382;28;20209;-57
2023/05/11 06:43:07;;;;;;;0.70;0.70;;;;;;;;;;4974998;28;20240;-57
2023/05/11 06:45:34;;;;;;;0.70;0.70;;;;;;;;;;5007119;28;20600;-57
2023/05/11 06:48:02;;;;;;;0.60;0.60;;;;;;;;;;5005522;28;20209;-58
2023/05/11 06:50:29;;;;;;;0.90;0.90;;;;;;;;;;4988111;28;20205;-57
2023/05/11 06:52:57;;;;;;;12.55;0.60;;;;;;;;;;4984398;28;20751;-57
2023/05/11 06:55:26;;;;;;;0.75;0.75;;;;;;;;;;4980848;28;20307;-57
2023/05/11 06:57:53;;;;;;;0.60;0.60;;;;;;;;;;4986495;28;20310;-57
2023/05/11 07:00:20;;;;;;;0.45;0.45;;;;;;;;;;4985928;28;20583;-57
2023/05/11 07:02:48;;;;;;;1.48;0.70;;;;;;;;;;4987883;28;20378;-57
2023/05/11 07:05:15;;;;;;;0.95;0.95;;;;;;;;;;4986566;28;20222;-56
2023/05/11 07:07:42;;;;;;;0.80;0.80;;;;;;;;;;4987583;28;20221;-61
2023/05/11 07:10:11;;;;;;;0.70;0.70;;;;;;;;;;4986685;28;20312;-56
2023/05/11 07:12:38;;;;;;;2.33;0.60;;;;;;;;;;4987949;28;20361;-56
2023/05/11 07:15:05;;;;;;;0.93;0.93;;;;;;;;;;4986092;28;20244;-56
2023/05/11 07:17:32;;;;;;;0.60;0.60;;;;;;;;;;4987552;28;20445;-58
2023/05/11 07:19:59;;;;;;;0.90;0.90;;;;;;;;;;4985553;28;20209;-58
2023/05/11 07:22:26;;;;;;;0.85;0.82;;;;;;;;;;4985054;28;20218;-57
2023/05/11 07:24:53;;;;;;;0.57;0.57;;;;;;;;;;4986665;28;20240;-58
2023/05/11 07:27:22;;;;;;;1.02;0.85;;;;;;;;;;4986822;28;20287;-58
2023/05/11 07:29:49;;;;;;;0.70;0.70;;;;;;;;;;4965736;28;20218;-58
2023/05/11 07:32:16;;;;;;;0.80;0.80;;;;;;;;;;4970296;28;20713;-58
2023/05/11 07:34:44;;;;;;;1.17;1.17;;;;;;;;;;4989695;28;20267;-59
2023/05/11 07:37:11;;;;;;;1.55;1.05;;;;;;;;;;4989889;28;20209;-58
2023/05/11 07:39:38;;;;;;;2.65;1.05;;;;;;;;;;4988830;28;20900;-58
2023/05/11 07:42:06;;;;;;;1.10;1.10;;;;;;;;;;4988100;28;20252;-58
2023/05/11 07:44:34;;;;;;;1.40;1.30;;;;;;;;;;4990000;28;20328;-58
2023/05/11 07:47:01;;;;;;;3.92;1.40;;;;;;;;;;4991087;28;20233;-59
2023/05/11 07:49:28;;;;;;;1.83;1.00;;;;;;;;;;4990715;28;20614;-58
2023/05/11 07:51:55;;;;;;;0.70;0.70;;;;;;;;;;4989707;28;20584;-59
2023/05/11 07:54:22;;;;;;;3.20;0.85;;;;;;;;;;4987238;28;20220;-59
2023/05/11 07:56:50;;;;;;;0.90;0.90;;;;;;;;;;4990363;28;20214;-59
2023/05/11 07:59:17;;;;;;;0.77;0.77;;;;;;;;;;4989074;28;20214;-59
2023/05/11 08:01:46;;;;;;;1.00;1.00;;;;;;;;;;4990288;28;20212;-59
2023/05/11 08:04:13;;;;;;;1.13;1.13;;;;;;;;;;4990604;28;20212;-58
2023/05/11 08:06:40;;;;;;;1.20;1.20;;;;;;;;;;4990247;28;20671;-57
2023/05/11 08:09:07;;;;;;;1.30;1.20;;;;;;;;;;4990730;28;20210;-59
2023/05/11 08:11:35;;;;;;;1.10;1.10;;;;;;;;;;4979424;28;20217;-62
2023/05/11 08:14:03;;;;;;;1.00;1.00;;;;;;;;;;4991019;28;20224;-59
2023/05/11 08:16:30;;;;;;;0.88;0.88;;;;;;;;;;4990521;28;20582;-58
2023/05/11 08:18:58;;;;;;;1.50;1.23;;;;;;;;;;4988408;28;20206;-57
2023/05/11 08:21:25;;;;;;;1.20;1.20;;;;;;;;;;4979517;28;20215;-58
2023/05/11 08:23:52;;;;;;;1.45;1.33;;;;;;;;;;4989141;28;20202;-58
2023/05/11 08:26:20;;;;;;;1.52;1.48;;;;;;;;;;4987991;28;20600;-58
2023/05/11 08:28:47;;;;;;;1.20;1.10;;;;;;;;;;4989817;28;20210;-58
2023/05/11 08:31:14;;;;;;;1.25;1.15;;;;;;;;;;4990194;28;20206;-57
2023/05/11 08:33:41;;;;;;;1.30;1.30;;;;;;;;;;4989959;28;20264;-57
2023/05/11 08:36:12;;;;;;;1.40;1.40;;;;;;;;;;4978235;28;20319;-57
2023/05/11 08:38:39;;;;;;;1.45;1.30;;;;;;;;;;4986723;28;20229;-57
2023/05/11 08:41:06;;;;;;;3.83;1.30;;;;;;;;;;4989273;28;20338;-57
2023/05/11 08:43:35;;;;;;;1.30;1.30;;;;;;;;;;4988450;28;20731;-57
2023/05/11 08:46:06;;;;;;;1.60;1.60;;;;;;;;;;4986360;28;20245;-58
2023/05/11 08:48:33;;;;;;;3.55;1.40;;;;;;;;;;4994814;28;20241;-57
2023/05/11 08:51:00;;;;;;;1.73;1.63;;;;;;;;;;5009522;28;20224;-59
2023/05/11 08:53:29;;;;;;;1.48;1.33;;;;;;;;;;5003429;28;20671;-58
2023/05/11 08:55:58;;;;;;;1.35;1.35;;;;;;;;;;5006903;28;20290;-58
2023/05/11 08:58:25;;;;;;;1.55;1.40;;;;;;;;;;5005524;28;20561;-58
2023/05/11 09:00:52;;;;;;;1.27;1.27;;;;;;;;;;5005618;28;20384;-57
2023/05/11 09:03:20;;;;;;;1.50;1.50;;;;;;;;;;5006010;28;20271;-57
2023/05/11 09:05:47;;;;;;;1.35;1.30;;;;;;;;;;5005553;28;20291;-58
2023/05/11 09:08:15;;;;;;;1.35;1.30;;;;;;;;;;5005615;28;20228;-58
2023/05/11 09:10:44;;;;;;;1.50;1.50;;;;;;;;;;5007771;28;20598;-57
2023/05/11 09:13:11;;;;;;;1.77;1.70;;;;;;;;;;5007672;28;20201;-57
2023/05/11 09:15:38;;;;;;;1.80;1.70;;;;;;;;;;5005897;28;20408;-57
2023/05/11 09:18:05;;;;;;;1.58;1.48;;;;;;;;;;5007826;28;20220;-58
2023/05/11 09:20:33;;;;;;;1.60;1.50;;;;;;;;;;5008109;28;20205;-58
2023/05/11 09:23:00;;;;;;;1.95;1.55;;;;;;;;;;5008629;28;20574;-57
2023/05/11 09:25:31;;;;;;;1.23;1.23;;;;;;;;;;5007821;28;20283;-58
2023/05/11 09:28:00;;;;;;;1.35;1.35;;;;;;;;;;5008324;28;20209;-58
2023/05/11 09:30:27;;;;;;;2.80;1.92;;;;;;;;;;5007504;28;20205;-58
2023/05/11 09:32:55;;;;;;;2.33;1.40;;;;;;;;;;5008024;28;20230;-58
2023/05/11 09:35:23;;;;;;;3.63;1.70;;;;;;;;;;5007517;28;20756;-58
2023/05/11 09:38:03;;;;;;;1.95;1.77;;;;;;;;;;5006368;28;20215;-57
2023/05/11 09:40:31;;;;;;;1.58;1.48;;;;;;;;;;5007518;28;20209;-59
2023/05/11 09:42:59;;;;;;;1.60;1.50;;;;;;;;;;5004942;28;20220;-59
2023/05/11 09:45:39;;;;;;;1.98;1.70;;;;;;;;;;5005862;28;20323;-59
2023/05/11 09:48:07;;;;;;;2.20;2.10;;;;;;;;;;5000442;28;20201;-58
2023/05/11 09:50:35;;;;;;;1.63;1.63;;;;;;;;;;4987435;28;20766;-59
2023/05/11 09:53:02;;;;;;;2.05;1.95;;;;;;;;;;4986741;28;20675;-60
2023/05/11 09:55:29;;;;;;;2.80;2.60;;;;;;;;;;4987433;28;20210;-60
2023/05/11 09:57:57;;;;;;;2.35;2.15;;;;;;;;;;4986367;28;20202;-58
2023/05/11 10:00:25;;;;;;;1.88;1.77;;;;;;;;;;4987789;28;20664;-62
2023/05/11 10:03:02;;;;;;;1.48;1.48;;;;;;;;;;4987275;28;20221;-60
2023/05/11 10:05:31;;;;;;;1.42;1.42;;;;;;;;;;4986633;28;20228;-59
2023/05/11 10:07:58;;;;;;;1.70;1.60;;;;;;;;;;4988528;28;20206;-59
2023/05/11 10:10:26;;;;;;;2.05;1.95;;;;;;;;;;4983760;28;20321;-59
2023/05/11 10:12:54;;;;;;;4.00;2.30;;;;;;;;;;4985344;28;20198;-59
2023/05/11 10:15:24;;;;;;;2.05;1.95;;;;;;;;;;4987999;28;20205;-59
2023/05/11 10:17:52;;;;;;;2.00;1.92;;;;;;;;;;4988871;28;20683;-58
2023/05/11 10:20:21;;;;;;;1.55;1.55;;;;;;;;;;4988839;28;20264;-58
2023/05/11 10:22:48;;;;;;;1.92;1.83;;;;;;;;;;4985332;28;21052;-58
2023/05/11 10:25:15;;;;;;;1.77;1.65;;;;;;;;;;4994305;28;20340;-58
2023/05/11 10:27:42;;;;;;;1.73;1.63;;;;;;;;;;4986902;28;20212;-59
2023/05/11 10:30:12;;;;;;;2.30;2.08;;;;;;;;;;4991337;28;20221;-59
2023/05/11 10:32:39;;;;;;;2.00;1.90;;;;;;;;;;4986638;28;20306;-58
2023/05/11 10:35:08;;;;;;;2.30;2.20;;;;;;;;;;4986715;28;20294;-58
2023/05/11 10:37:35;;;;;;;1.63;1.63;;;;;;;;;;4982381;28;20202;-58
2023/05/11 10:40:03;;;;;;;1.85;1.75;;;;;;;;;;4980924;28;20213;-58
2023/05/11 10:42:37;;;;;;;1.95;1.85;;;;;;;;;;4989547;28;20237;-58
2023/05/11 10:45:14;;;;;;;28.85;7.47;;;;;;;;;;4991150;28;20383;-58
2023/05/11 10:47:52;;;;;;;12.75;4.05;;;;;;;;;;4987467;28;20205;-58
2023/05/11 10:50:29;;;;;;;2.20;2.10;;;;;;;;;;4987845;28;20210;-58
2023/05/11 10:53:01;;;;;;;2.35;2.15;;;;;;;;;;4988322;28;20211;-58
2023/05/11 10:55:31;;;;;;;2.70;2.50;;;;;;;;;;4991644;28;20290;-59
2023/05/11 10:58:06;;;;;;;2.47;2.30;;;;;;;;;;4990191;28;20206;-56
2023/05/11 11:00:52;;;;;;;2.00;1.90;;;;;;;;;;4988753;28;20236;-58
2023/05/11 11:03:19;;;;;;;2.35;2.25;;;;;;;;;;4986683;28;20836;-58
2023/05/11 11:05:48;;;;;;;2.20;2.10;;;;;;;;;;4968381;28;21002;-58
2023/05/11 11:08:15;;;;;;;2.08;1.98;;;;;;;;;;4975551;28;20206;-58
2023/05/11 11:10:45;;;;;;;2.53;2.40;;;;;;;;;;4986543;28;20324;-58
2023/05/11 11:13:13;;;;;;;2.22;2.13;;;;;;;;;;4989512;28;20202;-59
2023/05/11 11:16:01;;;;;;;3.42;2.22;;;;;;;;;;4984178;28;20241;-59
2023/05/11 11:18:28;;;;;;;3.10;2.05;;;;;;;;;;4985189;28;20264;-64
2023/05/11 11:20:57;;;;;;;2.28;2.08;;;;;;;;;;4975084;28;20209;-58
2023/05/11 11:23:42;;;;;;;2.00;1.92;;;;;;;;;;4979073;28;20288;-58
2023/05/11 11:26:10;;;;;;;2.40;2.20;;;;;;;;;;4991158;28;20229;-58
2023/05/11 11:28:56;;;;;;;7.65;3.13;;;;;;;;;;4985923;28;20991;-58
2023/05/11 11:31:24;;;;;;;5.70;2.97;;;;;;;;;;4968367;28;20226;-58
2023/05/11 11:33:51;;;;;;;2.47;2.38;;;;;;;;;;4982580;28;20217;-58
2023/05/11 11:36:39;;;;;;;5.00;2.40;;;;;;;;;;4985962;28;20221;-58
2023/05/11 11:39:06;;;;;;;3.10;2.30;;;;;;;;;;4988743;28;20585;-58
2023/05/11 11:41:34;;;;;;;2.53;2.35;;;;;;;;;;4987566;28;20308;-57
2023/05/11 11:44:02;;;;;;;1.98;1.88;;;;;;;;;;4987118;28;20288;-58
2023/05/11 11:46:30;;;;;;;2.00;1.90;;;;;;;;;;4986976;28;20264;-59
2023/05/11 11:49:07;;;;;;;2.40;2.20;;;;;;;;;;4985962;28;20237;-58
2023/05/11 11:51:38;;;;;;;1.80;1.80;;;;;;;;;;4986685;28;20313;-58
2023/05/11 11:54:06;;;;;;;2.20;2.10;;;;;;;;;;4979165;28;20201;-58
2023/05/11 11:56:43;;;;;;;2.50;2.08;;;;;;;;;;4986778;28;20309;-58
2023/05/11 11:59:12;;;;;;;2.40;2.30;;;;;;;;;;4986365;28;20308;-57
2023/05/11 12:01:40;;;;;;;2.13;2.03;;;;;;;;;;4986966;28;20237;-57
2023/05/11 12:04:16;;;;;;;2.38;2.28;;;;;;;;;;4985581;28;20304;-57
2023/05/11 12:06:46;;;;;;;2.40;2.30;;;;;;;;;;4984458;28;20722;-56
2023/05/11 12:09:17;;;;;;;2.78;2.53;;;;;;;;;;4982182;28;20205;-57
2023/05/11 12:11:46;;;;;;;2.30;2.20;;;;;;;;;;4985397;28;20213;-57
2023/05/11 12:14:13;;;;;;;3.40;3.10;;;;;;;;;;4985137;28;20222;-57
2023/05/11 12:16:40;;;;;;;2.97;2.20;;;;;;;;;;4986925;28;20202;-60
2023/05/11 12:19:07;;;;;;;2.63;2.50;;;;;;;;;;4989537;28;20209;-60
2023/05/11 12:21:34;;;;;;;2.40;2.03;;;;;;;;;;4989058;28;20214;-57
2023/05/11 12:24:04;;;;;;;2.45;2.28;;;;;;;;;;4998548;28;20213;-60
2023/05/11 12:26:31;;;;;;;4.82;2.58;;;;;;;;;;4989110;28;20229;-57
2023/05/11 12:29:07;;;;;;;2.78;2.45;;;;;;;;;;4989391;28;20216;-57
2023/05/11 12:31:35;;;;;;;3.15;2.92;;;;;;;;;;4988747;28;20232;-57
2023/05/11 12:34:02;;;;;;;3.22;2.13;;;;;;;;;;4983192;28;20297;-58
2023/05/11 12:36:30;;;;;;;2.40;2.30;;;;;;;;;;4986407;28;20214;-58
2023/05/11 12:38:58;;;;;;;2.47;2.22;;;;;;;;;;4989311;28;20210;-58
2023/05/11 12:41:26;;;;;;;3.60;2.50;;;;;;;;;;4989275;28;20218;-57
2023/05/11 12:43:54;;;;;;;2.65;2.45;;;;;;;;;;4983563;28;20292;-56
2023/05/11 12:46:22;;;;;;;1.83;1.75;;;;;;;;;;4989186;28;20311;-57
2023/05/11 12:48:50;;;;;;;4.05;2.30;;;;;;;;;;4996488;28;20317;-56
2023/05/11 12:51:32;;;;;;;2.35;2.25;;;;;;;;;;4987478;28;20210;-56
2023/05/11 12:53:59;;;;;;;2.55;2.45;;;;;;;;;;4984694;28;20209;-57
2023/05/11 12:56:27;;;;;;;2.42;2.33;;;;;;;;;;4987896;28;20286;-57
2023/05/11 12:58:54;;;;;;;2.63;2.45;;;;;;;;;;4988910;28;20217;-56
2023/05/11 13:01:25;;;;;;;2.53;2.33;;;;;;;;;;5005733;28;20640;-57
2023/05/11 13:03:52;;;;;;;2.50;2.30;;;;;;;;;;4989336;28;20205;-56
2023/05/11 13:06:20;;;;;;;2.40;1.63;;;;;;;;;;4988565;28;20716;-56
2023/05/11 13:08:47;;;;;;;1.75;1.75;;;;;;;;;;4988752;28;20213;-56
2023/05/11 13:11:17;;;;;;;1.48;1.48;;;;;;;;;;4988820;28;20217;-57
2023/05/11 13:13:46;;;;;;;1.27;1.27;;;;;;;;;;4988969;28;20695;-57
2023/05/11 13:16:23;;;;;;;1.10;1.10;;;;;;;;;;4988506;28;20217;-57
2023/05/11 13:18:57;;;;;;;1.00;1.00;;;;;;;;;;4988899;28;20652;-57
2023/05/11 13:21:24;;;;;;;1.02;1.02;;;;;;;;;;4988242;28;20209;-57
2023/05/11 13:23:53;;;;;;;1.00;1.00;;;;;;;;;;4985229;28;20206;-57
2023/05/11 13:26:22;;;;;;;1.85;0.90;;;;;;;;;;4987774;28;20253;-57
2023/05/11 13:28:51;;;;;;;1.27;1.27;;;;;;;;;;4980592;28;20210;-57
2023/05/11 13:31:18;;;;;;;2.70;0.90;;;;;;;;;;4979783;28;20213;-57
2023/05/11 13:33:46;;;;;;;0.93;0.93;;;;;;;;;;4987860;28;20879;-56
2023/05/11 13:36:13;;;;;;;1.17;1.17;;;;;;;;;;4988320;28;20222;-56
2023/05/11 13:38:40;;;;;;;1.30;1.30;;;;;;;;;;4988103;28;20198;-56
2023/05/11 13:41:07;;;;;;;3.20;2.92;;;;;;;;;;4988555;28;20221;-56
2023/05/11 13:43:34;;;;;;;2.80;2.60;;;;;;;;;;4986958;28;20229;-57
2023/05/11 13:46:03;;;;;;;3.20;2.88;;;;;;;;;;4987669;28;20563;-56
2023/05/11 13:48:30;;;;;;;3.15;2.95;;;;;;;;;;4986284;28;20238;-57
2023/05/11 13:50:58;;;;;;;2.85;2.72;;;;;;;;;;4988915;28;20220;-57
2023/05/11 13:53:25;;;;;;;3.28;2.97;;;;;;;;;;4988526;28;20213;-57
2023/05/11 13:55:52;;;;;;;2.63;2.53;;;;;;;;;;4988469;28;20594;-56
2023/05/11 13:58:20;;;;;;;2.92;2.70;;;;;;;;;;4988309;28;20256;-57
2023/05/11 14:00:47;;;;;;;2.83;2.63;;;;;;;;;;4988434;28;20213;-57
2023/05/11 14:03:16;;;;;;;3.58;3.22;;;;;;;;;;4993503;28;20197;-57
2023/05/11 14:05:43;;;;;;;5.28;2.85;;;;;;;;;;4988582;28;20216;-57
2023/05/11 14:08:10;;;;;;;4.10;3.50;;;;;;;;;;4988072;28;20759;-57
2023/05/11 14:10:37;;;;;;;2.72;2.53;;;;;;;;;;4985646;28;20219;-57
2023/05/11 14:13:05;;;;;;;3.00;2.75;;;;;;;;;;4987485;28;20201;-58
2023/05/11 14:15:33;;;;;;;4.78;2.92;;;;;;;;;;4987760;28;20210;-57
2023/05/11 14:18:02;;;;;;;2.53;2.40;;;;;;;;;;4985213;28;20631;-57
2023/05/11 14:20:30;;;;;;;7.95;5.60;;;;;;;;;;4983148;28;20280;-57
2023/05/11 14:22:58;;;;;;;1.98;1.85;;;;;;;;;;4986212;28;20202;-57
2023/05/11 14:25:25;;;;;;;2.00;1.90;;;;;;;;;;4986775;28;20217;-57
2023/05/11 14:27:53;;;;;;;1.40;1.40;;;;;;;;;;4986008;28;20234;-57
2023/05/11 14:30:20;;;;;;;1.50;1.40;;;;;;;;;;4986631;28;20216;-57
2023/05/11 14:32:47;;;;;;;1.88;1.73;;;;;;;;;;4987419;28;20308;-57
2023/05/11 14:35:14;;;;;;;1.42;1.33;;;;;;;;;;4985559;28;20217;-57
2023/05/11 14:37:42;;;;;;;1.33;1.33;;;;;;;;;;4984784;28;20871;-57
2023/05/11 14:40:10;;;;;;;2.05;1.20;;;;;;;;;;4986694;28;20260;-57
2023/05/11 14:42:37;;;;;;;1.20;1.20;;;;;;;;;;4986751;28;20255;-57
2023/05/11 14:45:04;;;;;;;1.40;1.40;;;;;;;;;;4981647;28;20230;-57
2023/05/11 14:47:31;;;;;;;1.60;1.50;;;;;;;;;;4983565;28;20347;-57
2023/05/11 14:49:58;;;;;;;1.42;1.42;;;;;;;;;;4985523;28;20229;-57
2023/05/11 14:52:25;;;;;;;2.60;1.90;;;;;;;;;;4985119;28;20664;-57
2023/05/11 14:54:54;;;;;;;1.27;1.27;;;;;;;;;;4983972;28;20202;-57
2023/05/11 14:57:21;;;;;;;1.40;1.40;;;;;;;;;;4987289;28;20209;-57
2023/05/11 14:59:48;;;;;;;2.10;2.00;;;;;;;;;;4985800;28;20212;-57
2023/05/11 15:02:15;;;;;;;1.48;1.48;;;;;;;;;;4985085;28;20439;-58
2023/05/11 15:04:43;;;;;;;2.05;1.95;;;;;;;;;;4984746;28;20257;-57